UAL617 KDCA-KORD
Flight info
| Callsign | UAL617 |
|---|---|
| Flight time | 1h 41m |
| Altitude | 36000 |
| Route | WYNGS5 RAMAY Q72 HACKS J149 ROD WATSN4 |
| Aircraft | B738/M-SDE2E3FGHIRWXY/LB1 |
Departure
| Time | 2026-04-23 03:17 |
|---|---|
| Airport | Ronald Reagan Washington National Airport (KDCA) |
Arrival
| Time | 2026-04-23 04:59 |
|---|---|
| Airport | Chicago O'Hare International Airport (KORD) |
| Time | Latitude | Longitude | Altitude | Speed | Heading |
|---|---|---|---|---|---|
| 2026-04-23 02:46 | 38.85359 | -77.04151 | 25 ft | 0 kts | 348° |
| 2026-04-23 03:01 | 38.85354 | -77.04149 | 26 ft | 2 kts | 348° |
| 2026-04-23 03:02 | 38.85339 | -77.04145 | 26 ft | 2 kts | 358° |
| 2026-04-23 03:02 | 38.85324 | -77.04151 | 26 ft | 2 kts | 36° |
| 2026-04-23 03:02 | 38.85315 | -77.04165 | 26 ft | 1 kts | 67° |
| 2026-04-23 03:02 | 38.85313 | -77.04172 | 26 ft | 1 kts | 73° |
| 2026-04-23 03:03 | 38.85312 | -77.04175 | 26 ft | 0 kts | 72° |
| 2026-04-23 03:09 | 38.85312 | -77.04174 | 26 ft | 0 kts | 72° |
| 2026-04-23 03:10 | 38.85322 | -77.04137 | 26 ft | 11 kts | 72° |
| 2026-04-23 03:10 | 38.85341 | -77.04043 | 26 ft | 11 kts | 74° |
| 2026-04-23 03:10 | 38.85396 | -77.03999 | 26 ft | 10 kts | 358° |
| 2026-04-23 03:10 | 38.85483 | -77.04011 | 26 ft | 17 kts | 351° |
| 2026-04-23 03:11 | 38.85595 | -77.04037 | 26 ft | 16 kts | 352° |
| 2026-04-23 03:11 | 38.85707 | -77.04049 | 26 ft | 16 kts | 356° |
| 2026-04-23 03:11 | 38.85817 | -77.04059 | 25 ft | 16 kts | 355° |
| 2026-04-23 03:11 | 38.85917 | -77.04049 | 25 ft | 11 kts | 37° |
| 2026-04-23 03:12 | 38.85942 | -77.04011 | 25 ft | 4 kts | 53° |
| 2026-04-23 03:12 | 38.85961 | -77.03984 | 25 ft | 4 kts | 40° |
| 2026-04-23 03:12 | 38.85979 | -77.03970 | 25 ft | 0 kts | 24° |
| 2026-04-23 03:15 | 38.86048 | -77.03941 | 25 ft | 14 kts | 15° |
| 2026-04-23 03:15 | 38.86102 | -77.03904 | 25 ft | 5 kts | 58° |
| 2026-04-23 03:15 | 38.86102 | -77.03873 | 25 ft | 2 kts | 135° |
| 2026-04-23 03:15 | 38.86090 | -77.03869 | 25 ft | 0 kts | 176° |
| 2026-04-23 03:16 | 38.85968 | -77.03858 | 25 ft | 57 kts | 175° |
| 2026-04-23 03:17 | 38.85286 | -77.03790 | 25 ft | 137 kts | 175° |
| 2026-04-23 03:17 | 38.84156 | -77.03672 | 335 ft | 175 kts | 176° |
| 2026-04-23 03:17 | 38.82932 | -77.03617 | 1175 ft | 182 kts | 185° |
| 2026-04-23 03:17 | 38.81676 | -77.03710 | 2026 ft | 183 kts | 190° |
| 2026-04-23 03:18 | 38.80376 | -77.03727 | 2600 ft | 198 kts | 181° |
| 2026-04-23 03:18 | 38.78941 | -77.03610 | 3117 ft | 215 kts | 180° |
| 2026-04-23 03:18 | 38.77405 | -77.03698 | 3634 ft | 228 kts | 198° |
| 2026-04-23 03:18 | 38.76012 | -77.04669 | 4143 ft | 235 kts | 229° |
| 2026-04-23 03:19 | 38.75097 | -77.06402 | 4735 ft | 242 kts | 250° |
| 2026-04-23 03:19 | 38.74597 | -77.08519 | 4999 ft | 254 kts | 265° |
| 2026-04-23 03:19 | 38.74450 | -77.10787 | 5247 ft | 258 kts | 271° |
| 2026-04-23 03:19 | 38.74383 | -77.13093 | 5657 ft | 268 kts | 271° |
| 2026-04-23 03:20 | 38.74283 | -77.15478 | 6695 ft | 269 kts | 270° |
| 2026-04-23 03:20 | 38.74151 | -77.17842 | 7743 ft | 269 kts | 270° |
| 2026-04-23 03:20 | 38.74004 | -77.20221 | 8674 ft | 273 kts | 270° |
| 2026-04-23 03:20 | 38.73857 | -77.22641 | 9561 ft | 277 kts | 271° |
| 2026-04-23 03:21 | 38.73922 | -77.25078 | 10362 ft | 278 kts | 284° |
| 2026-04-23 03:21 | 38.74624 | -77.27395 | 10952 ft | 287 kts | 302° |
| 2026-04-23 03:21 | 38.75721 | -77.29609 | 11475 ft | 303 kts | 306° |
| 2026-04-23 03:21 | 38.76921 | -77.31902 | 12036 ft | 317 kts | 306° |
| 2026-04-23 03:22 | 38.78152 | -77.34318 | 12553 ft | 331 kts | 305° |
| 2026-04-23 03:22 | 38.79386 | -77.36825 | 13286 ft | 338 kts | 304° |
| 2026-04-23 03:22 | 38.80628 | -77.39397 | 14112 ft | 342 kts | 304° |
| 2026-04-23 03:22 | 38.81870 | -77.41994 | 14908 ft | 346 kts | 304° |
| 2026-04-23 03:23 | 38.83127 | -77.44627 | 15690 ft | 350 kts | 304° |
| 2026-04-23 03:23 | 38.84395 | -77.47286 | 16428 ft | 354 kts | 304° |
| 2026-04-23 03:23 | 38.85681 | -77.49982 | 17222 ft | 356 kts | 304° |
| 2026-04-23 03:23 | 38.86971 | -77.52685 | 17992 ft | 358 kts | 304° |
| 2026-04-23 03:24 | 38.88267 | -77.55402 | 18722 ft | 361 kts | 304° |
| 2026-04-23 03:24 | 38.89580 | -77.58153 | 19396 ft | 365 kts | 304° |
| 2026-04-23 03:24 | 38.90899 | -77.60919 | 20078 ft | 368 kts | 304° |
| 2026-04-23 03:24 | 38.92218 | -77.63729 | 20754 ft | 371 kts | 302° |
| 2026-04-23 03:25 | 38.93356 | -77.66687 | 21356 ft | 377 kts | 295° |
| 2026-04-23 03:25 | 38.94124 | -77.69938 | 22021 ft | 384 kts | 285° |
| 2026-04-23 03:25 | 38.94502 | -77.73349 | 22628 ft | 390 kts | 279° |
| 2026-04-23 03:25 | 38.94698 | -77.76838 | 23248 ft | 393 kts | 277° |
| 2026-04-23 03:26 | 38.94820 | -77.80349 | 23810 ft | 397 kts | 276° |
| 2026-04-23 03:26 | 38.94918 | -77.83895 | 24322 ft | 400 kts | 276° |
| 2026-04-23 03:26 | 38.95014 | -77.87483 | 24799 ft | 404 kts | 276° |
| 2026-04-23 03:26 | 38.95116 | -77.91093 | 25334 ft | 406 kts | 277° |
| 2026-04-23 03:27 | 38.95226 | -77.94749 | 25805 ft | 410 kts | 277° |
| 2026-04-23 03:27 | 38.95339 | -77.98412 | 26279 ft | 413 kts | 277° |
| 2026-04-23 03:27 | 38.95456 | -78.02083 | 26785 ft | 415 kts | 277° |
| 2026-04-23 03:27 | 38.95576 | -78.05802 | 27245 ft | 418 kts | 278° |
| 2026-04-23 03:28 | 38.95696 | -78.09530 | 27685 ft | 421 kts | 278° |
| 2026-04-23 03:28 | 38.95817 | -78.13284 | 28139 ft | 424 kts | 278° |
| 2026-04-23 03:28 | 38.95939 | -78.17063 | 28591 ft | 426 kts | 278° |
| 2026-04-23 03:28 | 38.96061 | -78.20886 | 29006 ft | 429 kts | 278° |
| 2026-04-23 03:29 | 38.96210 | -78.24704 | 29453 ft | 431 kts | 279° |
| 2026-04-23 03:29 | 38.96428 | -78.28527 | 29879 ft | 432 kts | 280° |
| 2026-04-23 03:29 | 38.96685 | -78.32373 | 30269 ft | 435 kts | 281° |
| 2026-04-23 03:29 | 38.96955 | -78.36242 | 30706 ft | 436 kts | 281° |
| 2026-04-23 03:30 | 38.97221 | -78.40082 | 31329 ft | 433 kts | 281° |
| 2026-04-23 03:30 | 38.97481 | -78.43910 | 31926 ft | 430 kts | 281° |
| 2026-04-23 03:30 | 38.97735 | -78.47739 | 32451 ft | 428 kts | 281° |
| 2026-04-23 03:30 | 38.97985 | -78.51557 | 32851 ft | 429 kts | 281° |
| 2026-04-23 03:31 | 38.98232 | -78.55387 | 33251 ft | 430 kts | 281° |
| 2026-04-23 03:31 | 38.98477 | -78.59224 | 33630 ft | 430 kts | 281° |
| 2026-04-23 03:31 | 38.98719 | -78.63079 | 34044 ft | 430 kts | 281° |
| 2026-04-23 03:31 | 38.98952 | -78.66817 | 34495 ft | 429 kts | 280° |
| 2026-04-23 03:32 | 38.99186 | -78.70634 | 35004 ft | 427 kts | 280° |
| 2026-04-23 03:32 | 38.99420 | -78.74458 | 35496 ft | 425 kts | 280° |
| 2026-04-23 03:32 | 38.99649 | -78.78242 | 35910 ft | 425 kts | 280° |
| 2026-04-23 03:32 | 38.99879 | -78.82029 | 36087 ft | 427 kts | 280° |
| 2026-04-23 03:33 | 39.00337 | -78.89640 | 36062 ft | 423 kts | 280° |
| 2026-04-23 03:33 | 39.00785 | -78.97201 | 36063 ft | 425 kts | 280° |
| 2026-04-23 03:34 | 39.01231 | -79.04795 | 36057 ft | 423 kts | 280° |
| 2026-04-23 03:34 | 39.01670 | -79.12343 | 36072 ft | 425 kts | 280° |
| 2026-04-23 03:35 | 39.02109 | -79.19900 | 36082 ft | 424 kts | 280° |
| 2026-04-23 03:35 | 39.02597 | -79.27466 | 36105 ft | 424 kts | 281° |
| 2026-04-23 03:36 | 39.03099 | -79.35009 | 36098 ft | 424 kts | 281° |
| 2026-04-23 03:36 | 39.03592 | -79.42536 | 36099 ft | 423 kts | 280° |
| 2026-04-23 03:37 | 39.04079 | -79.50084 | 36102 ft | 425 kts | 280° |
| 2026-04-23 03:37 | 39.04561 | -79.57675 | 36095 ft | 426 kts | 280° |
| 2026-04-23 03:38 | 39.05031 | -79.65178 | 36106 ft | 429 kts | 280° |
| 2026-04-23 03:38 | 39.05497 | -79.72699 | 36109 ft | 429 kts | 279° |
| 2026-04-23 03:39 | 39.05962 | -79.80353 | 36099 ft | 427 kts | 280° |
| 2026-04-23 03:39 | 39.06422 | -79.87951 | 36097 ft | 429 kts | 280° |
| 2026-04-23 03:40 | 39.06880 | -79.95607 | 36092 ft | 428 kts | 279° |
| 2026-04-23 03:40 | 39.07332 | -80.03242 | 36083 ft | 428 kts | 280° |
| 2026-04-23 03:41 | 39.07778 | -80.10868 | 36075 ft | 427 kts | 279° |
| 2026-04-23 03:41 | 39.08220 | -80.18479 | 36079 ft | 429 kts | 279° |
| 2026-04-23 03:42 | 39.08656 | -80.26102 | 36079 ft | 429 kts | 279° |
| 2026-04-23 03:42 | 39.09085 | -80.33756 | 36078 ft | 429 kts | 279° |
| 2026-04-23 03:43 | 39.09499 | -80.41397 | 36076 ft | 429 kts | 279° |
| 2026-04-23 03:43 | 39.09904 | -80.49016 | 36077 ft | 429 kts | 279° |
| 2026-04-23 03:44 | 39.10303 | -80.56593 | 36078 ft | 428 kts | 279° |
| 2026-04-23 03:44 | 39.10694 | -80.64113 | 36080 ft | 429 kts | 279° |
| 2026-04-23 03:45 | 39.11082 | -80.71650 | 36076 ft | 430 kts | 278° |
| 2026-04-23 03:45 | 39.11466 | -80.79188 | 36074 ft | 428 kts | 279° |
| 2026-04-23 03:46 | 39.11836 | -80.86580 | 36071 ft | 429 kts | 279° |
| 2026-04-23 03:46 | 39.12209 | -80.94105 | 36069 ft | 427 kts | 278° |
| 2026-04-23 03:47 | 39.12583 | -81.01720 | 36068 ft | 427 kts | 279° |
| 2026-04-23 03:47 | 39.13415 | -81.09233 | 36069 ft | 421 kts | 290° |
| 2026-04-23 03:48 | 39.15612 | -81.16173 | 36070 ft | 414 kts | 300° |
| 2026-04-23 03:48 | 39.18308 | -81.22724 | 36077 ft | 416 kts | 302° |
| 2026-04-23 03:49 | 39.21063 | -81.29240 | 36086 ft | 414 kts | 302° |
| 2026-04-23 03:49 | 39.23818 | -81.35837 | 36089 ft | 416 kts | 302° |
| 2026-04-23 03:50 | 39.26528 | -81.42417 | 36087 ft | 415 kts | 301° |
| 2026-04-23 03:50 | 39.29211 | -81.48984 | 36085 ft | 414 kts | 301° |
| 2026-04-23 03:51 | 39.31873 | -81.55530 | 36085 ft | 412 kts | 302° |
| 2026-04-23 03:51 | 39.34544 | -81.62113 | 36082 ft | 414 kts | 302° |
| 2026-04-23 03:52 | 39.37218 | -81.68713 | 36080 ft | 414 kts | 301° |
| 2026-04-23 03:52 | 39.39835 | -81.75190 | 36069 ft | 414 kts | 301° |
| 2026-04-23 03:53 | 39.42418 | -81.81601 | 36067 ft | 415 kts | 301° |
| 2026-04-23 03:53 | 39.45076 | -81.88219 | 36064 ft | 414 kts | 301° |
| 2026-04-23 03:54 | 39.47727 | -81.94828 | 36061 ft | 414 kts | 301° |
| 2026-04-23 03:54 | 39.50371 | -82.01432 | 36061 ft | 413 kts | 301° |
| 2026-04-23 03:55 | 39.53011 | -82.08045 | 36060 ft | 413 kts | 301° |
| 2026-04-23 03:55 | 39.55645 | -82.14656 | 36061 ft | 414 kts | 301° |
| 2026-04-23 03:56 | 39.58275 | -82.21267 | 36063 ft | 413 kts | 301° |
| 2026-04-23 03:56 | 39.60911 | -82.27910 | 36064 ft | 415 kts | 301° |
| 2026-04-23 03:57 | 39.63535 | -82.34538 | 36063 ft | 413 kts | 301° |
| 2026-04-23 03:57 | 39.66153 | -82.41169 | 36066 ft | 413 kts | 301° |
| 2026-04-23 03:58 | 39.68766 | -82.47799 | 36076 ft | 413 kts | 301° |
| 2026-04-23 03:58 | 39.71380 | -82.54445 | 36082 ft | 413 kts | 301° |
| 2026-04-23 03:59 | 39.73992 | -82.61098 | 36084 ft | 413 kts | 301° |
| 2026-04-23 03:59 | 39.76509 | -82.67529 | 36081 ft | 412 kts | 301° |
| 2026-04-23 04:00 | 39.79010 | -82.73927 | 36076 ft | 412 kts | 301° |
| 2026-04-23 04:00 | 39.81618 | -82.80616 | 36080 ft | 414 kts | 300° |
| 2026-04-23 04:01 | 39.83774 | -82.86154 | 36078 ft | 414 kts | 300° |
| 2026-04-23 04:02 | 39.88775 | -82.99055 | 36071 ft | 413 kts | 301° |
| 2026-04-23 04:02 | 39.91346 | -83.05708 | 36067 ft | 413 kts | 301° |
| 2026-04-23 04:03 | 39.93936 | -83.12418 | 36069 ft | 414 kts | 300° |
| 2026-04-23 04:03 | 39.96499 | -83.19077 | 36069 ft | 412 kts | 300° |
| 2026-04-23 04:04 | 39.99063 | -83.25754 | 36065 ft | 412 kts | 300° |
| 2026-04-23 04:04 | 40.01632 | -83.32457 | 36063 ft | 413 kts | 300° |
| 2026-04-23 04:05 | 40.04198 | -83.39165 | 36068 ft | 413 kts | 300° |
| 2026-04-23 04:05 | 40.06757 | -83.45870 | 36070 ft | 414 kts | 300° |
| 2026-04-23 04:06 | 40.09317 | -83.52595 | 36069 ft | 415 kts | 300° |
| 2026-04-23 04:06 | 40.11784 | -83.59094 | 36062 ft | 414 kts | 300° |
| 2026-04-23 04:07 | 40.14145 | -83.65327 | 36047 ft | 415 kts | 299° |
| 2026-04-23 04:07 | 40.16520 | -83.71606 | 36047 ft | 416 kts | 299° |
| 2026-04-23 04:08 | 40.18952 | -83.78055 | 36045 ft | 414 kts | 299° |
| 2026-04-23 04:08 | 40.21253 | -83.84169 | 36046 ft | 414 kts | 299° |
| 2026-04-23 04:09 | 40.23686 | -83.90643 | 36046 ft | 415 kts | 299° |
| 2026-04-23 04:09 | 40.26224 | -83.97415 | 36052 ft | 415 kts | 299° |
| 2026-04-23 04:10 | 40.28921 | -84.04125 | 36031 ft | 414 kts | 304° |
| 2026-04-23 04:10 | 40.32261 | -84.10227 | 36031 ft | 413 kts | 310° |
| 2026-04-23 04:11 | 40.35871 | -84.16059 | 36037 ft | 412 kts | 311° |
| 2026-04-23 04:11 | 40.39515 | -84.21887 | 36040 ft | 412 kts | 311° |
| 2026-04-23 04:12 | 40.43130 | -84.27730 | 36038 ft | 411 kts | 311° |
| 2026-04-23 04:12 | 40.46719 | -84.33581 | 36044 ft | 412 kts | 310° |
| 2026-04-23 04:13 | 40.50303 | -84.39459 | 36039 ft | 412 kts | 310° |
| 2026-04-23 04:13 | 40.53895 | -84.45370 | 36039 ft | 413 kts | 310° |
| 2026-04-23 04:14 | 40.57471 | -84.51271 | 36021 ft | 413 kts | 310° |
| 2026-04-23 04:14 | 40.61034 | -84.57159 | 36021 ft | 413 kts | 310° |
| 2026-04-23 04:15 | 40.64626 | -84.63105 | 36013 ft | 411 kts | 310° |
| 2026-04-23 04:16 | 40.69908 | -84.71872 | 36021 ft | 413 kts | 310° |
| 2026-04-23 04:16 | 40.73436 | -84.77740 | 36011 ft | 413 kts | 310° |
| 2026-04-23 04:16 | 40.75198 | -84.80674 | 35701 ft | 416 kts | 309° |
| 2026-04-23 04:17 | 40.77008 | -84.83692 | 35272 ft | 416 kts | 309° |
| 2026-04-23 04:17 | 40.78801 | -84.86684 | 34859 ft | 417 kts | 310° |
| 2026-04-23 04:17 | 40.80607 | -84.89700 | 34431 ft | 419 kts | 309° |
| 2026-04-23 04:17 | 40.82416 | -84.92726 | 34013 ft | 420 kts | 309° |
| 2026-04-23 04:18 | 40.84232 | -84.95766 | 33639 ft | 422 kts | 310° |
| 2026-04-23 04:18 | 40.86048 | -84.98807 | 33265 ft | 424 kts | 309° |
| 2026-04-23 04:18 | 40.87875 | -85.01871 | 32895 ft | 425 kts | 309° |
| 2026-04-23 04:18 | 40.89719 | -85.04968 | 32524 ft | 427 kts | 309° |
| 2026-04-23 04:19 | 40.91558 | -85.08057 | 32203 ft | 429 kts | 309° |
| 2026-04-23 04:19 | 40.93387 | -85.11134 | 31892 ft | 431 kts | 309° |
| 2026-04-23 04:19 | 40.95244 | -85.14261 | 31582 ft | 431 kts | 309° |
| 2026-04-23 04:19 | 40.97090 | -85.17374 | 31270 ft | 432 kts | 309° |
| 2026-04-23 04:20 | 40.98973 | -85.20493 | 30950 ft | 435 kts | 311° |
| 2026-04-23 04:20 | 41.00954 | -85.23521 | 30631 ft | 436 kts | 313° |
| 2026-04-23 04:20 | 41.03015 | -85.26505 | 30308 ft | 436 kts | 314° |
| 2026-04-23 04:20 | 41.05086 | -85.29443 | 29998 ft | 438 kts | 314° |
| 2026-04-23 04:21 | 41.07165 | -85.32384 | 29685 ft | 439 kts | 314° |
| 2026-04-23 04:21 | 41.09250 | -85.35345 | 29373 ft | 440 kts | 314° |
| 2026-04-23 04:21 | 41.11187 | -85.38111 | 29080 ft | 441 kts | 314° |
| 2026-04-23 04:21 | 41.13101 | -85.40860 | 28788 ft | 443 kts | 314° |
| 2026-04-23 04:22 | 41.15093 | -85.43856 | 28478 ft | 444 kts | 311° |
| 2026-04-23 04:22 | 41.16942 | -85.47141 | 28164 ft | 447 kts | 304° |
| 2026-04-23 04:22 | 41.18359 | -85.50569 | 27868 ft | 450 kts | 297° |
| 2026-04-23 04:22 | 41.19560 | -85.54433 | 27552 ft | 453 kts | 292° |
| 2026-04-23 04:23 | 41.20499 | -85.57978 | 27270 ft | 454 kts | 291° |
| 2026-04-23 04:23 | 41.21398 | -85.61671 | 26981 ft | 454 kts | 290° |
| 2026-04-23 04:23 | 41.22330 | -85.65668 | 26672 ft | 455 kts | 289° |
| 2026-04-23 04:23 | 41.23229 | -85.69582 | 26364 ft | 458 kts | 289° |
| 2026-04-23 04:24 | 41.24170 | -85.73671 | 26054 ft | 459 kts | 289° |
| 2026-04-23 04:24 | 41.25100 | -85.77690 | 25749 ft | 460 kts | 289° |
| 2026-04-23 04:24 | 41.26005 | -85.81658 | 25449 ft | 461 kts | 287° |
| 2026-04-23 04:24 | 41.26687 | -85.85409 | 25166 ft | 461 kts | 283° |
| 2026-04-23 04:25 | 41.27243 | -85.89669 | 25021 ft | 458 kts | 280° |
| 2026-04-23 04:25 | 41.27663 | -85.93874 | 25017 ft | 461 kts | 279° |
| 2026-04-23 04:25 | 41.28023 | -85.98105 | 25016 ft | 462 kts | 278° |
| 2026-04-23 04:25 | 41.28357 | -86.02387 | 25017 ft | 461 kts | 278° |
| 2026-04-23 04:26 | 41.28703 | -86.06608 | 25010 ft | 461 kts | 279° |
| 2026-04-23 04:26 | 41.29133 | -86.10834 | 25011 ft | 461 kts | 280° |
| 2026-04-23 04:26 | 41.29613 | -86.15038 | 25008 ft | 460 kts | 281° |
| 2026-04-23 04:26 | 41.30119 | -86.19245 | 25006 ft | 461 kts | 281° |
| 2026-04-23 04:27 | 41.30628 | -86.23431 | 24863 ft | 456 kts | 281° |
| 2026-04-23 04:27 | 41.31128 | -86.27572 | 24197 ft | 451 kts | 281° |
| 2026-04-23 04:27 | 41.31625 | -86.31699 | 23286 ft | 451 kts | 281° |
| 2026-04-23 04:28 | 41.32578 | -86.39765 | 22289 ft | 428 kts | 281° |
| 2026-04-23 04:28 | 41.33027 | -86.43606 | 21776 ft | 412 kts | 281° |
| 2026-04-23 04:28 | 41.33612 | -86.47279 | 21084 ft | 403 kts | 288° |
| 2026-04-23 04:28 | 41.34585 | -86.50732 | 20488 ft | 397 kts | 298° |
| 2026-04-23 04:29 | 41.36008 | -86.53797 | 20194 ft | 383 kts | 309° |
| 2026-04-23 04:29 | 41.37785 | -86.56379 | 19983 ft | 369 kts | 318° |
| 2026-04-23 04:29 | 41.39727 | -86.58558 | 19507 ft | 364 kts | 324° |
| 2026-04-23 04:29 | 41.41797 | -86.60461 | 18985 ft | 361 kts | 329° |
| 2026-04-23 04:30 | 41.43925 | -86.62188 | 18417 ft | 359 kts | 331° |
| 2026-04-23 04:30 | 41.46084 | -86.63847 | 17896 ft | 356 kts | 332° |
| 2026-04-23 04:30 | 41.48213 | -86.65473 | 17423 ft | 353 kts | 331° |
| 2026-04-23 04:30 | 41.50276 | -86.67066 | 16936 ft | 350 kts | 330° |
| 2026-04-23 04:31 | 41.52275 | -86.68630 | 16488 ft | 347 kts | 330° |
| 2026-04-23 04:31 | 41.54208 | -86.70157 | 16022 ft | 345 kts | 330° |
| 2026-04-23 04:31 | 41.55947 | -86.71540 | 15599 ft | 342 kts | 330° |
| 2026-04-23 04:31 | 41.57912 | -86.73109 | 15119 ft | 340 kts | 330° |
| 2026-04-23 04:32 | 41.59669 | -86.74514 | 14706 ft | 337 kts | 330° |
| 2026-04-23 04:32 | 41.61675 | -86.76120 | 14220 ft | 335 kts | 330° |
| 2026-04-23 04:32 | 41.63665 | -86.77687 | 13747 ft | 331 kts | 332° |
| 2026-04-23 04:32 | 41.65742 | -86.79006 | 13353 ft | 324 kts | 341° |
| 2026-04-23 04:33 | 41.67874 | -86.79705 | 13213 ft | 309 kts | 352° |
| 2026-04-23 04:33 | 41.69970 | -86.80040 | 12951 ft | 301 kts | 355° |
| 2026-04-23 04:33 | 41.72048 | -86.80261 | 12525 ft | 300 kts | 356° |
| 2026-04-23 04:33 | 41.74122 | -86.80470 | 12063 ft | 300 kts | 356° |
| 2026-04-23 04:34 | 41.76190 | -86.80698 | 11627 ft | 299 kts | 355° |
| 2026-04-23 04:34 | 41.78229 | -86.80975 | 11392 ft | 290 kts | 353° |
| 2026-04-23 04:34 | 41.80210 | -86.81385 | 11091 ft | 285 kts | 351° |
| 2026-04-23 04:34 | 41.82148 | -86.81859 | 10646 ft | 285 kts | 350° |
| 2026-04-23 04:35 | 41.84090 | -86.82340 | 10237 ft | 284 kts | 350° |
| 2026-04-23 04:35 | 41.86013 | -86.82905 | 9809 ft | 284 kts | 343° |
| 2026-04-23 04:35 | 41.87784 | -86.84031 | 9415 ft | 283 kts | 326° |
| 2026-04-23 04:35 | 41.89283 | -86.85665 | 9261 ft | 274 kts | 320° |
| 2026-04-23 04:36 | 41.90685 | -86.87366 | 8934 ft | 272 kts | 319° |
| 2026-04-23 04:36 | 41.92102 | -86.89057 | 8571 ft | 271 kts | 320° |
| 2026-04-23 04:36 | 41.93533 | -86.90702 | 8204 ft | 271 kts | 320° |
| 2026-04-23 04:36 | 41.94975 | -86.92325 | 7820 ft | 270 kts | 321° |
| 2026-04-23 04:37 | 41.96409 | -86.93928 | 7463 ft | 268 kts | 321° |
| 2026-04-23 04:37 | 41.97837 | -86.95524 | 7106 ft | 267 kts | 320° |
| 2026-04-23 04:37 | 41.99250 | -86.97108 | 6980 ft | 263 kts | 320° |
| 2026-04-23 04:37 | 42.00614 | -86.98773 | 6968 ft | 267 kts | 309° |
| 2026-04-23 04:38 | 42.01345 | -87.01054 | 6973 ft | 270 kts | 275° |
| 2026-04-23 04:38 | 42.01033 | -87.03510 | 6969 ft | 270 kts | 248° |
| 2026-04-23 04:38 | 42.00262 | -87.05812 | 6983 ft | 270 kts | 251° |
| 2026-04-23 04:38 | 41.99835 | -87.08264 | 6979 ft | 270 kts | 262° |
| 2026-04-23 04:39 | 41.99606 | -87.10750 | 6969 ft | 269 kts | 264° |
| 2026-04-23 04:39 | 41.99408 | -87.13249 | 6984 ft | 270 kts | 264° |
| 2026-04-23 04:39 | 41.99213 | -87.15751 | 6976 ft | 270 kts | 264° |
| 2026-04-23 04:39 | 41.99017 | -87.18263 | 6976 ft | 268 kts | 264° |
| 2026-04-23 04:40 | 41.98821 | -87.20752 | 6975 ft | 268 kts | 265° |
| 2026-04-23 04:40 | 41.98625 | -87.23236 | 6980 ft | 267 kts | 264° |
| 2026-04-23 04:40 | 41.98429 | -87.25717 | 6973 ft | 267 kts | 265° |
| 2026-04-23 04:40 | 41.98234 | -87.28208 | 6969 ft | 268 kts | 264° |
| 2026-04-23 04:41 | 41.98001 | -87.30681 | 6968 ft | 269 kts | 260° |
| 2026-04-23 04:41 | 41.97549 | -87.33133 | 6969 ft | 269 kts | 255° |
| 2026-04-23 04:41 | 41.97010 | -87.35559 | 6971 ft | 270 kts | 254° |
| 2026-04-23 04:41 | 41.96463 | -87.37963 | 6973 ft | 269 kts | 254° |
| 2026-04-23 04:42 | 41.95917 | -87.40367 | 6978 ft | 269 kts | 254° |
| 2026-04-23 04:42 | 41.95375 | -87.42766 | 6981 ft | 270 kts | 254° |
| 2026-04-23 04:42 | 41.94837 | -87.45170 | 6977 ft | 270 kts | 254° |
| 2026-04-23 04:42 | 41.94305 | -87.47586 | 6975 ft | 271 kts | 254° |
| 2026-04-23 04:43 | 41.93775 | -87.49993 | 6978 ft | 267 kts | 254° |
| 2026-04-23 04:43 | 41.93242 | -87.52407 | 6984 ft | 268 kts | 254° |
| 2026-04-23 04:43 | 41.92761 | -87.54667 | 6986 ft | 268 kts | 257° |
| 2026-04-23 04:43 | 41.92428 | -87.57132 | 6984 ft | 271 kts | 264° |
| 2026-04-23 04:44 | 41.92252 | -87.59646 | 6987 ft | 270 kts | 265° |
| 2026-04-23 04:44 | 41.92113 | -87.62147 | 6983 ft | 269 kts | 266° |
| 2026-04-23 04:44 | 41.91983 | -87.64639 | 6981 ft | 268 kts | 266° |
| 2026-04-23 04:44 | 41.91867 | -87.66901 | 6980 ft | 266 kts | 265° |
| 2026-04-23 04:45 | 41.91768 | -87.68865 | 6976 ft | 254 kts | 265° |
| 2026-04-23 04:45 | 41.91686 | -87.70531 | 6978 ft | 245 kts | 265° |
| 2026-04-23 04:45 | 41.91593 | -87.72451 | 6980 ft | 242 kts | 265° |
| 2026-04-23 04:45 | 41.91516 | -87.74051 | 6981 ft | 242 kts | 266° |
| 2026-04-23 04:46 | 41.91368 | -87.77100 | 6977 ft | 244 kts | 266° |
| 2026-04-23 04:46 | 41.91236 | -87.79752 | 6978 ft | 245 kts | 266° |
| 2026-04-23 04:46 | 41.91121 | -87.82030 | 6978 ft | 245 kts | 266° |
| 2026-04-23 04:46 | 41.91003 | -87.84313 | 6981 ft | 244 kts | 266° |
| 2026-04-23 04:47 | 41.90888 | -87.86580 | 6979 ft | 244 kts | 266° |
| 2026-04-23 04:47 | 41.90779 | -87.88855 | 6979 ft | 245 kts | 266° |
| 2026-04-23 04:47 | 41.90676 | -87.91084 | 6977 ft | 235 kts | 266° |
| 2026-04-23 04:47 | 41.90578 | -87.93259 | 6977 ft | 235 kts | 266° |
| 2026-04-23 04:48 | 41.90480 | -87.95445 | 6978 ft | 235 kts | 266° |
| 2026-04-23 04:48 | 41.90383 | -87.97632 | 6978 ft | 235 kts | 266° |
| 2026-04-23 04:48 | 41.90284 | -87.99840 | 6821 ft | 236 kts | 266° |
| 2026-04-23 04:48 | 41.90190 | -88.02022 | 6565 ft | 233 kts | 266° |
| 2026-04-23 04:49 | 41.90102 | -88.04178 | 6311 ft | 231 kts | 266° |
| 2026-04-23 04:49 | 41.90019 | -88.06308 | 6059 ft | 229 kts | 266° |
| 2026-04-23 04:49 | 41.89939 | -88.08429 | 5805 ft | 227 kts | 266° |
| 2026-04-23 04:49 | 41.89862 | -88.10528 | 5553 ft | 225 kts | 266° |
| 2026-04-23 04:50 | 41.89788 | -88.12607 | 5300 ft | 223 kts | 266° |
| 2026-04-23 04:50 | 41.89716 | -88.14693 | 5044 ft | 222 kts | 266° |
| 2026-04-23 04:50 | 41.89646 | -88.16753 | 4790 ft | 220 kts | 266° |
| 2026-04-23 04:50 | 41.89581 | -88.18801 | 4537 ft | 218 kts | 266° |
| 2026-04-23 04:51 | 41.89519 | -88.20820 | 4285 ft | 217 kts | 266° |
| 2026-04-23 04:51 | 41.89465 | -88.22828 | 4039 ft | 214 kts | 268° |
| 2026-04-23 04:51 | 41.89790 | -88.24753 | 3963 ft | 216 kts | 297° |
| 2026-04-23 04:51 | 41.90883 | -88.26159 | 3970 ft | 225 kts | 330° |
| 2026-04-23 04:52 | 41.92432 | -88.26620 | 3975 ft | 229 kts | 355° |
| 2026-04-23 04:52 | 41.94012 | -88.26653 | 3972 ft | 229 kts | 358° |
| 2026-04-23 04:52 | 41.95613 | -88.26680 | 3972 ft | 229 kts | 357° |
| 2026-04-23 04:52 | 41.97200 | -88.26714 | 3972 ft | 228 kts | 357° |
| 2026-04-23 04:53 | 41.98769 | -88.26454 | 3971 ft | 230 kts | 20° |
| 2026-04-23 04:53 | 42.00045 | -88.25192 | 3972 ft | 231 kts | 53° |
| 2026-04-23 04:53 | 42.00614 | -88.23217 | 3971 ft | 230 kts | 87° |
| 2026-04-23 04:53 | 42.00308 | -88.21147 | 3974 ft | 226 kts | 117° |
| 2026-04-23 04:54 | 41.99558 | -88.19321 | 3974 ft | 225 kts | 122° |
| 2026-04-23 04:54 | 41.98897 | -88.17451 | 3969 ft | 217 kts | 109° |
| 2026-04-23 04:54 | 41.98712 | -88.15534 | 3960 ft | 200 kts | 93° |
| 2026-04-23 04:54 | 41.98723 | -88.13837 | 3768 ft | 191 kts | 91° |
| 2026-04-23 04:55 | 41.98745 | -88.12150 | 3545 ft | 174 kts | 92° |
| 2026-04-23 04:55 | 41.98750 | -88.10584 | 3258 ft | 163 kts | 93° |
| 2026-04-23 04:55 | 41.98755 | -88.09068 | 3061 ft | 162 kts | 92° |
| 2026-04-23 04:55 | 41.98763 | -88.07577 | 2835 ft | 158 kts | 92° |
| 2026-04-23 04:56 | 41.98769 | -88.06118 | 2621 ft | 156 kts | 92° |
| 2026-04-23 04:56 | 41.98775 | -88.04681 | 2407 ft | 154 kts | 92° |
| 2026-04-23 04:56 | 41.98781 | -88.03260 | 2196 ft | 152 kts | 92° |
| 2026-04-23 04:56 | 41.98787 | -88.01900 | 1998 ft | 150 kts | 92° |
| 2026-04-23 04:57 | 41.98792 | -88.00664 | 1815 ft | 149 kts | 92° |
| 2026-04-23 04:57 | 41.98798 | -87.99268 | 1615 ft | 149 kts | 92° |
| 2026-04-23 04:57 | 41.98803 | -87.97888 | 1414 ft | 149 kts | 92° |
| 2026-04-23 04:57 | 41.98807 | -87.96520 | 1178 ft | 150 kts | 91° |
| 2026-04-23 04:58 | 41.98824 | -87.95149 | 1008 ft | 145 kts | 90° |
| 2026-04-23 04:58 | 41.98830 | -87.93810 | 805 ft | 142 kts | 91° |
| 2026-04-23 04:58 | 41.98826 | -87.92495 | 676 ft | 138 kts | 90° |
| 2026-04-23 04:58 | 41.98827 | -87.91469 | 675 ft | 73 kts | 90° |
| 2026-04-23 04:59 | 41.98770 | -87.91040 | 675 ft | 25 kts | 121° |
| 2026-04-23 04:59 | 41.98701 | -87.90998 | 675 ft | 9 kts | 207° |
| 2026-04-23 04:59 | 41.98682 | -87.91036 | 675 ft | 0 kts | 256° |
| 2026-04-23 05:01 | 41.98677 | -87.91085 | 675 ft | 12 kts | 266° |
| 2026-04-23 05:01 | 41.98677 | -87.91201 | 675 ft | 13 kts | 271° |
| 2026-04-23 05:01 | 41.98677 | -87.91320 | 675 ft | 13 kts | 270° |
| 2026-04-23 05:01 | 41.98678 | -87.91443 | 675 ft | 15 kts | 270° |
| 2026-04-23 05:02 | 41.98677 | -87.91605 | 675 ft | 18 kts | 270° |
| 2026-04-23 05:02 | 41.98675 | -87.91770 | 675 ft | 17 kts | 254° |
| 2026-04-23 05:02 | 41.98584 | -87.91824 | 675 ft | 16 kts | 181° |
| 2026-04-23 05:02 | 41.98465 | -87.91824 | 675 ft | 19 kts | 180° |
| 2026-04-23 05:03 | 41.98324 | -87.91818 | 675 ft | 19 kts | 165° |
| 2026-04-23 05:03 | 41.98286 | -87.91683 | 675 ft | 17 kts | 90° |
| 2026-04-23 05:03 | 41.98287 | -87.91495 | 675 ft | 22 kts | 90° |
| 2026-04-23 05:03 | 41.98287 | -87.91272 | 675 ft | 26 kts | 90° |
| 2026-04-23 05:04 | 41.98287 | -87.91032 | 675 ft | 25 kts | 89° |
| 2026-04-23 05:04 | 41.98275 | -87.90867 | 675 ft | 13 kts | 136° |
| 2026-04-23 05:04 | 41.98183 | -87.90842 | 675 ft | 17 kts | 165° |
| 2026-04-23 05:04 | 41.98051 | -87.90794 | 675 ft | 20 kts | 174° |
| 2026-04-23 05:05 | 41.98005 | -87.90795 | 675 ft | 0 kts | 184° |
| 2026-04-23 05:05 | 41.97977 | -87.90799 | 675 ft | 12 kts | 188° |
| 2026-04-23 05:05 | 41.97943 | -87.90790 | 674 ft | 3 kts | 129° |
| 2026-04-23 05:05 | 41.97935 | -87.90768 | 674 ft | 3 kts | 105° |
| 2026-04-23 05:06 | 41.97934 | -87.90758 | 675 ft | 0 kts | 99° |
| 2026-04-23 05:06 | 41.97933 | -87.90751 | 675 ft | 3 kts | 99° |
| 2026-04-23 05:06 | 41.97932 | -87.90743 | 675 ft | 0 kts | 99° |
| 2026-04-23 05:06 | 41.97932 | -87.90741 | 675 ft | 0 kts | 99° |
| 2026-04-23 05:07 | 41.97931 | -87.90738 | 675 ft | 0 kts | 98° |